Time;durP1;ratioP1;P1;durP2;ratioP2;P2;SDS_P1;SDS_P2;PMS_P1;PMS_P2;Temp;Humidity;BMP_temperature;BMP_pressure;BME280_temperature;BME280_humidity;BME280_pressure;Samples;Min_cycle;Max_cycle;Signal;HPM_P1;HPM_P2
2023/08/08 00:00:54;;;;;;;;;7.00;5.00;;;;;21.14;41.13;99821.19;110265;1265;20099;-40
2023/08/08 00:03:34;;;;;;;;;5.00;5.00;;;;;21.19;41.05;99817.48;110284;1251;20737;-40
2023/08/08 00:06:00;;;;;;;;;6.00;4.50;;;;;21.25;40.87;99822.52;110273;1251;18640;-40
2023/08/08 00:08:26;;;;;;;;;5.00;5.00;;;;;21.26;40.80;99822.39;110295;1250;19702;-39
2023/08/08 00:10:52;;;;;;;;;4.00;4.00;;;;;21.23;40.68;99824.34;110276;1251;20598;-38
2023/08/08 00:13:18;;;;;;;;;5.00;4.00;;;;;21.23;40.74;99831.52;110300;1251;19361;-40
2023/08/08 00:15:44;;;;;;;;;4.00;4.00;;;;;21.27;40.69;99828.54;110281;1250;19788;-40
2023/08/08 00:18:10;;;;;;;;;5.00;5.00;;;;;21.26;40.79;99823.86;110275;1265;19202;-39
2023/08/08 00:20:36;;;;;;;;;4.00;4.00;;;;;21.22;40.79;99828.21;110270;1251;22321;-39
2023/08/08 00:23:02;;;;;;;;;4.00;4.00;;;;;21.19;40.63;99828.67;110272;1250;19785;-39
2023/08/08 00:25:28;;;;;;;;;5.00;5.00;;;;;21.25;40.70;99830.14;110261;1265;19392;-38
2023/08/08 00:27:54;;;;;;;;;4.00;4.00;;;;;21.22;40.84;99831.48;110279;1265;19538;-39
2023/08/08 00:30:20;;;;;;;;;8.50;7.50;;;;;21.19;40.76;99837.90;110336;1250;21633;-40
2023/08/08 00:32:46;;;;;;;;;5.00;5.00;;;;;21.11;40.94;99843.50;110343;1251;20549;-39
2023/08/08 00:35:12;;;;;;;;;5.00;5.00;;;;;21.23;40.65;99844.11;110280;1251;19512;-40
2023/08/08 00:37:37;;;;;;;;;8.00;7.00;;;;;21.12;40.74;99844.26;110293;1265;18395;-39
2023/08/08 00:40:03;;;;;;;;;5.00;5.00;;;;;21.06;40.79;99845.05;110236;1265;19095;-38
2023/08/08 00:42:29;;;;;;;;;7.50;4.50;;;;;21.12;40.75;99849.14;110262;1251;19399;-38
2023/08/08 00:45:01;;;;;;;;;7.00;5.00;;;;;21.18;40.54;99845.41;110333;1265;18394;-40
2023/08/08 00:47:27;;;;;;;;;5.00;5.00;;;;;20.97;41.12;99846.58;110285;1251;20748;-39
2023/08/08 00:49:53;;;;;;;;;5.00;5.00;;;;;21.06;41.01;99850.16;110258;1265;22937;-40
2023/08/08 00:52:19;;;;;;;;;4.00;4.00;;;;;21.15;40.49;99849.55;110299;1249;22449;-38
2023/08/08 00:54:45;;;;;;;;;8.00;7.00;;;;;21.12;40.44;99852.97;110263;1265;23157;-40
2023/08/08 00:57:11;;;;;;;;;4.50;4.00;;;;;21.13;40.51;99857.02;110268;1250;23307;-40
2023/08/08 00:59:37;;;;;;;;;5.00;5.00;;;;;21.13;40.49;99859.80;110266;1265;18508;-40
2023/08/08 01:02:03;;;;;;;;;9.00;7.00;;;;;21.09;40.34;99865.48;110263;1251;20542;-39
2023/08/08 01:04:29;;;;;;;;;4.50;4.50;;;;;21.10;40.21;99866.34;110287;1250;20429;-39
2023/08/08 01:06:55;;;;;;;;;7.00;5.00;;;;;21.06;40.49;99872.17;110275;1250;19884;-40
2023/08/08 01:09:21;;;;;;;;;7.00;5.00;;;;;21.11;40.16;99870.80;110294;1250;23246;-40
2023/08/08 01:11:49;;;;;;;;;5.00;5.00;;;;;21.11;40.32;99872.59;110240;1250;20965;-40
2023/08/08 01:14:15;;;;;;;;;5.00;5.00;;;;;20.96;40.59;99875.08;110287;1251;21330;-39
2023/08/08 01:16:41;;;;;;;;;7.00;5.00;;;;;20.89;40.64;99878.38;110256;1265;19096;-40
2023/08/08 01:19:07;;;;;;;;;7.00;5.00;;;;;20.99;40.57;99880.15;110272;1250;19376;-39
2023/08/08 01:21:33;;;;;;;;;4.00;4.00;;;;;21.00;40.36;99876.48;110281;1265;18376;-40
2023/08/08 01:23:59;;;;;;;;;6.00;5.00;;;;;21.03;40.30;99879.34;110279;1251;20503;-40
2023/08/08 01:26:25;;;;;;;;;7.00;5.00;;;;;21.06;39.95;99881.75;110275;1265;18307;-40
2023/08/08 01:28:51;;;;;;;;;5.00;5.00;;;;;21.02;40.11;99879.30;110284;1265;20013;-40
2023/08/08 01:31:17;;;;;;;;;7.00;7.00;;;;;21.01;40.22;99879.84;110298;1251;20415;-39
2023/08/08 01:33:43;;;;;;;;;4.00;4.00;;;;;20.97;40.47;99879.02;110260;1249;19362;-40
2023/08/08 01:36:09;;;;;;;;;5.00;5.00;;;;;20.89;40.76;99884.05;110303;1265;18408;-40
2023/08/08 01:38:34;;;;;;;;;5.00;4.00;;;;;20.96;40.56;99891.79;110257;1251;20606;-40
2023/08/08 01:41:00;;;;;;;;;7.50;5.00;;;;;21.01;40.59;99895.15;110268;1251;19358;-40
2023/08/08 01:43:26;;;;;;;;;4.00;4.00;;;;;21.01;40.35;99895.98;110310;1249;18427;-40
2023/08/08 01:45:52;;;;;;;;;5.00;5.00;;;;;21.02;40.52;99899.01;110292;1251;20715;-40
2023/08/08 01:48:18;;;;;;;;;4.00;4.00;;;;;20.91;40.67;99901.71;110270;1251;19327;-40
2023/08/08 01:50:44;;;;;;;;;5.00;5.00;;;;;20.95;40.89;99904.49;110283;1265;20128;-39
2023/08/08 01:53:10;;;;;;;;;4.00;4.00;;;;;20.81;41.13;99905.16;110161;1251;21687;-40
2023/08/08 01:55:36;;;;;;;;;8.00;7.00;;;;;20.66;41.60;99906.89;110261;1251;22350;-40
2023/08/08 01:58:02;;;;;;;;;7.00;5.00;;;;;20.83;41.22;99906.98;110252;1251;22357;-40
2023/08/08 02:00:28;;;;;;;;;5.00;5.00;;;;;20.75;41.60;99901.33;110261;1265;19316;-39
2023/08/08 02:02:54;;;;;;;;;5.00;4.00;;;;;20.85;41.31;99904.30;110281;1251;19331;-40
2023/08/08 02:05:20;;;;;;;;;3.00;3.00;;;;;20.79;41.48;99899.54;110277;1251;20389;-39
2023/08/08 02:07:46;;;;;;;;;5.00;4.00;;;;;20.91;41.11;99895.72;110278;1265;19226;-39
2023/08/08 02:10:12;;;;;;;;;5.00;5.00;;;;;20.75;41.91;99896.27;110260;1265;18169;-40
2023/08/08 02:12:38;;;;;;;;;4.00;4.00;;;;;20.86;41.44;99898.23;110291;1251;20016;-40
2023/08/08 02:15:04;;;;;;;;;4.00;4.00;;;;;20.87;41.39;99901.54;110297;1251;21974;-38
2023/08/08 02:17:30;;;;;;;;;4.50;4.50;;;;;20.89;41.36;99904.02;110254;1251;20758;-40
2023/08/08 02:19:56;;;;;;;;;5.00;4.00;;;;;20.87;41.56;99904.70;110247;1265;22242;-40
2023/08/08 02:22:22;;;;;;;;;8.00;7.00;;;;;20.88;41.37;99908.27;110267;1266;19951;-39
2023/08/08 02:24:48;;;;;;;;;4.00;2.00;;;;;20.81;41.46;99913.92;110303;1265;18182;-39
2023/08/08 02:27:14;;;;;;;;;4.50;3.00;;;;;20.81;41.78;99913.23;110251;1265;19724;-39
2023/08/08 02:29:40;;;;;;;;;5.00;5.00;;;;;20.74;42.24;99914.30;110269;1265;19407;-39
2023/08/08 02:32:06;;;;;;;;;4.00;4.00;;;;;20.78;42.03;99920.39;110369;1251;20656;-39
2023/08/08 02:34:32;;;;;;;;;5.00;4.00;;;;;20.63;42.34;99918.71;110370;1251;22832;-40
2023/08/08 02:36:58;;;;;;;;;5.00;5.00;;;;;20.58;42.58;99919.98;110363;1250;22855;-40
2023/08/08 02:39:24;;;;;;;;;5.00;4.00;;;;;20.61;42.33;99922.01;110332;1250;22460;-39
2023/08/08 02:41:50;;;;;;;;;3.67;2.67;;;;;20.64;42.57;99929.92;110203;1257;20002;-40
2023/08/08 02:44:16;;;;;;;;;8.00;7.00;;;;;20.83;41.97;99926.30;110300;1265;20529;-38
2023/08/08 02:46:42;;;;;;;;;5.00;4.00;;;;;20.80;42.11;99919.01;110374;1257;19459;-39
2023/08/08 02:49:08;;;;;;;;;4.00;4.00;;;;;20.85;42.02;99924.98;110375;1251;19831;-39
2023/08/08 02:51:33;;;;;;;;;5.00;4.00;;;;;20.84;42.13;99920.04;110400;1265;19230;-40
2023/08/08 02:53:59;;;;;;;;;4.00;4.00;;;;;20.87;41.93;99925.83;110345;1250;19564;-39
2023/08/08 02:56:25;;;;;;;;;6.00;5.00;;;;;20.83;42.08;99925.39;110374;1251;20938;-39
2023/08/08 02:58:51;;;;;;;;;7.00;5.00;;;;;20.75;42.34;99925.23;110358;1250;22992;-39
2023/08/08 03:01:17;;;;;;;;;4.00;4.00;;;;;20.70;42.61;99924.58;110362;1251;19513;-40
2023/08/08 03:03:43;;;;;;;;;4.00;4.00;;;;;20.77;42.29;99928.36;110246;1257;19671;-40
2023/08/08 03:06:09;;;;;;;;;4.00;4.00;;;;;20.81;42.41;99927.00;110262;1249;20533;-39
2023/08/08 03:08:35;;;;;;;;;5.00;5.00;;;;;20.75;42.57;99923.33;110278;1251;19361;-39
2023/08/08 03:11:01;;;;;;;;;5.00;5.00;;;;;20.66;42.74;99932.02;110287;1257;19628;-39
2023/08/08 03:13:27;;;;;;;;;4.00;4.00;;;;;20.74;42.63;99932.70;110265;1265;19624;-40
2023/08/08 03:15:53;;;;;;;;;5.00;4.00;;;;;20.82;42.26;99933.67;110294;1251;19325;-40
2023/08/08 03:18:18;;;;;;;;;5.00;4.00;;;;;20.87;42.18;99938.94;110267;1251;19942;-40
2023/08/08 03:20:44;;;;;;;;;7.00;5.00;;;;;20.85;42.29;99934.83;110303;1250;20469;-40
2023/08/08 03:23:10;;;;;;;;;8.00;5.00;;;;;20.90;42.04;99937.82;110274;1250;19409;-40
2023/08/08 03:25:36;;;;;;;;;5.00;5.00;;;;;20.93;42.06;99940.17;110267;1249;19964;-40
2023/08/08 03:28:02;;;;;;;;;5.00;5.00;;;;;20.88;42.23;99939.80;110262;1258;20836;-39
2023/08/08 03:30:28;;;;;;;;;7.00;6.00;;;;;20.88;41.99;99938.88;110290;1249;18558;-40
2023/08/08 03:32:54;;;;;;;;;5.00;5.00;;;;;20.90;42.06;99941.90;110290;1251;19763;-38
2023/08/08 03:35:20;;;;;;;;;5.00;5.00;;;;;20.88;42.28;99942.20;110300;1251;20559;-38
2023/08/08 03:37:46;;;;;;;;;6.00;4.00;;;;;20.93;42.01;99937.89;110299;1251;21719;-39
2023/08/08 03:40:13;;;;;;;;;5.00;5.00;;;;;20.94;41.95;99935.59;110319;1251;19753;-39
2023/08/08 03:42:39;;;;;;;;;5.00;5.00;;;;;20.90;42.15;99942.02;110329;1249;19389;-40
2023/08/08 03:45:05;;;;;;;;;5.00;5.00;;;;;20.94;42.19;99949.74;110298;1250;19469;-39
2023/08/08 03:47:31;;;;;;;;;3.00;3.00;;;;;20.88;42.40;99949.10;110267;1265;20802;-39
2023/08/08 03:49:57;;;;;;;;;7.00;7.00;;;;;20.95;42.09;99954.04;110320;1250;20563;-40
2023/08/08 03:52:23;;;;;;;;;8.00;7.00;;;;;20.93;42.39;99957.16;110289;1251;18192;-39
2023/08/08 03:54:49;;;;;;;;;7.00;7.00;;;;;20.97;42.00;99961.03;110304;1265;18540;-40
2023/08/08 03:57:15;;;;;;;;;4.00;4.00;;;;;21.01;42.01;99962.84;110305;1250;20543;-40
2023/08/08 03:59:41;;;;;;;;;8.50;5.00;;;;;20.91;42.55;99967.25;110272;1265;18189;-40
2023/08/08 04:02:07;;;;;;;;;4.00;4.00;;;;;20.88;42.35;99967.02;110289;1265;18391;-39
2023/08/08 04:04:33;;;;;;;;;2.00;2.00;;;;;20.91;42.50;99963.60;110300;1265;19241;-40
2023/08/08 04:06:59;;;;;;;;;2.00;2.00;;;;;20.90;42.41;99966.56;110283;1249;19414;-39
2023/08/08 04:09:24;;;;;;;;;4.00;3.00;;;;;20.73;42.92;99971.39;110304;1265;19899;-39
2023/08/08 04:11:50;;;;;;;;;7.00;7.00;;;;;20.79;42.93;99973.89;110335;1251;20728;-40
2023/08/08 04:14:16;;;;;;;;;2.00;2.00;;;;;20.88;42.75;99972.58;110306;1251;19353;-39
2023/08/08 04:16:42;;;;;;;;;4.00;4.00;;;;;20.85;42.90;99976.81;110348;1251;19730;-40
2023/08/08 04:19:08;;;;;;;;;5.00;5.00;;;;;20.86;42.71;99981.91;110354;1249;20535;-39
2023/08/08 04:21:34;;;;;;;;;5.00;5.00;;;;;20.81;42.95;99985.52;110302;1265;18423;-39
2023/08/08 04:24:00;;;;;;;;;4.00;4.00;;;;;20.79;43.09;99984.19;110282;1251;19704;-38
2023/08/08 04:26:26;;;;;;;;;5.00;4.00;;;;;20.80;43.19;99989.17;110295;1251;20601;-39
2023/08/08 04:28:52;;;;;;;;;4.00;4.00;;;;;20.85;43.00;99990.85;110241;1250;19398;-40
2023/08/08 04:31:18;;;;;;;;;5.00;5.00;;;;;20.84;43.02;99999.30;110250;1265;22353;-39
2023/08/08 04:33:44;;;;;;;;;5.00;5.00;;;;;20.68;43.56;99995.95;110368;1250;20533;-38
2023/08/08 04:36:10;;;;;;;;;12.00;11.50;;;;;20.81;43.24;99996.23;110329;1251;19496;-39
2023/08/08 04:38:36;;;;;;;;;8.00;8.00;;;;;20.81;43.36;100003.59;110295;1265;18632;-38
2023/08/08 04:41:02;;;;;;;;;7.00;7.00;;;;;20.71;43.60;100002.29;110285;1249;20547;-40
2023/08/08 04:43:28;;;;;;;;;7.00;5.00;;;;;20.64;43.98;100004.15;110184;1250;18417;-40
2023/08/08 04:45:54;;;;;;;;;4.50;4.50;;;;;20.67;43.83;100004.61;110308;1251;20189;-38
2023/08/08 04:48:20;;;;;;;;;8.00;5.00;;;;;20.73;43.79;100011.16;110331;1249;22761;-38
2023/08/08 04:50:46;;;;;;;;;7.00;7.00;;;;;20.82;43.31;100012.29;110340;1257;24012;-38
2023/08/08 04:53:12;;;;;;;;;4.50;4.50;;;;;20.66;43.97;100016.54;110292;1265;19713;-40
2023/08/08 04:55:38;;;;;;;;;5.00;4.00;;;;;20.70;43.78;100019.50;110280;1249;20494;-40
2023/08/08 04:58:04;;;;;;;;;5.00;4.00;;;;;20.71;43.78;100018.24;110278;1250;23135;-40
2023/08/08 05:00:30;;;;;;;;;4.00;4.00;;;;;20.78;43.71;100021.91;110288;1249;21029;-40
2023/08/08 05:02:56;;;;;;;;;4.00;4.00;;;;;20.82;43.67;100027.40;110288;1249;20541;-40
2023/08/08 05:05:22;;;;;;;;;4.00;4.00;;;;;20.74;43.85;100031.65;110264;1257;19381;-39
2023/08/08 05:07:48;;;;;;;;;4.00;4.00;;;;;20.71;43.87;100031.95;110314;1250;22098;-40
2023/08/08 05:10:14;;;;;;;;;5.00;4.00;;;;;20.79;43.62;100035.64;110275;1265;19061;-39
2023/08/08 05:12:40;;;;;;;;;7.00;4.00;;;;;20.74;44.00;100036.93;110214;1265;18344;-40
2023/08/08 05:15:05;;;;;;;;;5.00;5.00;;;;;20.81;43.71;100040.28;110268;1265;19810;-39
2023/08/08 05:17:31;;;;;;;;;7.00;5.00;;;;;20.83;43.62;100044.65;110269;1265;19250;-39
2023/08/08 05:19:57;;;;;;;;;8.00;5.00;;;;;20.83;43.85;100044.06;110289;1265;19329;-40
2023/08/08 05:22:23;;;;;;;;;7.00;5.00;;;;;20.86;43.58;100046.20;110267;1249;19710;-38
2023/08/08 05:24:49;;;;;;;;;7.00;5.00;;;;;20.85;43.58;100052.03;110276;1265;20447;-39
2023/08/08 05:27:15;;;;;;;;;7.00;5.00;;;;;20.83;43.89;100052.11;110282;1265;18283;-38
2023/08/08 05:29:41;;;;;;;;;5.00;5.00;;;;;20.76;44.13;100055.94;110372;1265;18358;-39
2023/08/08 05:32:07;;;;;;;;;5.00;5.00;;;;;20.79;43.97;100057.50;110322;1265;19116;-37
2023/08/08 05:34:33;;;;;;;;;7.00;5.00;;;;;20.88;43.77;100062.02;110289;1249;19457;-39
2023/08/08 05:36:59;;;;;;;;;7.00;7.00;;;;;20.85;44.08;100065.44;110279;1251;19655;-39
2023/08/08 05:39:25;;;;;;;;;4.00;4.00;;;;;20.73;44.12;100071.77;110293;1265;19100;-40
2023/08/08 05:41:51;;;;;;;;;5.00;4.00;;;;;20.80;44.24;100073.38;110280;1249;19399;-40
2023/08/08 05:44:17;;;;;;;;;7.00;5.00;;;;;20.68;44.39;100076.61;110360;1265;19982;-39
2023/08/08 05:46:43;;;;;;;;;4.50;4.50;;;;;20.65;44.44;100075.94;110305;1265;19075;-39
2023/08/08 05:49:08;;;;;;;;;4.00;4.00;;;;;20.71;44.67;100074.13;110290;1265;18655;-40
2023/08/08 05:51:34;;;;;;;;;5.00;5.00;;;;;20.76;44.28;100068.23;110313;1265;18395;-40
2023/08/08 05:54:00;;;;;;;;;5.00;4.00;;;;;20.75;44.38;100074.47;110272;1251;20512;-39
2023/08/08 05:56:26;;;;;;;;;7.00;5.00;;;;;20.78;44.41;100076.52;110267;1251;19454;-40
2023/08/08 05:58:52;;;;;;;;;7.00;7.00;;;;;20.61;44.82;100072.70;110260;1251;19822;-39
2023/08/08 06:01:18;;;;;;;;;6.00;4.00;;;;;20.75;44.58;100073.92;110256;1265;19084;-40
2023/08/08 06:03:44;;;;;;;;;5.00;4.00;;;;;20.57;45.01;100070.44;110282;1251;22784;-40
2023/08/08 06:06:10;;;;;;;;;7.00;5.00;;;;;20.52;45.21;100072.24;110266;1249;22883;-39
2023/08/08 06:08:36;;;;;;;;;6.00;6.00;;;;;20.66;44.86;100079.52;110259;1251;20653;-39
2023/08/08 06:11:02;;;;;;;;;4.00;4.00;;;;;20.82;44.44;100081.80;110261;1250;19387;-39
2023/08/08 06:13:28;;;;;;;;;5.00;5.00;;;;;20.67;44.94;100080.38;110260;1250;22957;-39
2023/08/08 06:15:54;;;;;;;;;7.00;5.00;;;;;20.73;44.68;100076.40;110289;1251;20533;-39
2023/08/08 06:18:20;;;;;;;;;5.00;5.00;;;;;20.79;44.66;100079.56;110269;1265;18400;-40
2023/08/08 06:20:46;;;;;;;;;4.00;4.00;;;;;20.90;44.21;100082.59;110282;1251;18639;-40
2023/08/08 06:23:12;;;;;;;;;9.00;6.00;;;;;20.92;44.17;100085.23;110282;1265;20833;-39
2023/08/08 06:25:38;;;;;;;;;5.00;5.00;;;;;20.92;43.72;100086.48;110310;1266;22437;-39
2023/08/08 06:28:04;;;;;;;;;7.00;5.00;;;;;20.97;44.05;100089.98;110310;1265;18608;-40
2023/08/08 06:30:30;;;;;;;;;5.00;5.00;;;;;21.02;43.90;100094.29;110255;1251;20684;-39
2023/08/08 06:32:56;;;;;;;;;4.00;4.00;;;;;21.07;43.48;100085.68;110254;1257;23858;-39
2023/08/08 06:35:22;;;;;;;;;5.00;5.00;;;;;21.10;43.60;100098.73;110256;1265;20016;-39
2023/08/08 06:37:48;;;;;;;;;4.00;4.00;;;;;21.10;43.81;100103.20;110341;1265;20575;-40
2023/08/08 06:40:14;;;;;;;;;6.00;5.00;;;;;21.17;43.22;100100.56;110353;1265;19540;-39
2023/08/08 06:42:40;;;;;;;;;4.67;4.67;;;;;21.18;43.54;100104.10;110240;1265;19018;-38
2023/08/08 06:45:06;;;;;;;;;7.00;5.00;;;;;21.19;43.42;100106.04;110256;1257;19606;-38
2023/08/08 06:47:33;;;;;;;;;8.00;7.00;;;;;21.23;43.56;100116.15;110310;1257;18257;-39
2023/08/08 06:49:59;;;;;;;;;4.00;4.00;;;;;21.21;43.24;100115.14;110324;1265;19521;-38
2023/08/08 06:52:25;;;;;;;;;6.33;5.00;;;;;21.16;43.14;100116.42;110350;1265;19475;-38
2023/08/08 06:54:51;;;;;;;;;4.50;4.00;;;;;21.12;42.91;100119.23;110345;1265;19038;-38
2023/08/08 06:57:18;;;;;;;;;5.00;4.00;;;;;21.16;42.96;100124.66;110365;1265;20248;-38
2023/08/08 06:59:46;;;;;;;;;6.00;6.00;;;;;21.16;42.65;100124.70;110323;1265;20976;-39
2023/08/08 07:02:13;;;;;;;;;5.00;5.00;;;;;21.14;42.55;100120.69;110328;1265;18554;-38
2023/08/08 07:04:39;;;;;;;;;5.00;5.00;;;;;21.15;42.79;100119.59;110347;1265;20132;-39
2023/08/08 07:07:06;;;;;;;;;7.00;5.00;;;;;21.17;42.61;100118.60;110354;1257;19410;-39
2023/08/08 07:09:33;;;;;;;;;5.00;5.00;;;;;21.25;42.25;100123.11;110302;1265;20043;-39
2023/08/08 07:11:59;;;;;;;;;4.00;4.00;;;;;21.27;42.39;100119.43;110329;1250;18756;-39
2023/08/08 07:14:26;;;;;;;;;7.00;7.00;;;;;21.32;42.23;100121.39;110317;1265;19390;-38
2023/08/08 07:16:53;;;;;;;;;4.00;4.00;;;;;21.35;42.36;100123.77;110136;1266;19392;-38
2023/08/08 07:19:19;;;;;;;;;5.00;5.00;;;;;21.25;42.43;100119.73;110346;1265;18649;-38
2023/08/08 07:21:46;;;;;;;;;7.00;5.00;;;;;21.15;42.34;100117.67;110266;1265;20595;-39
2023/08/08 07:24:13;;;;;;;;;6.00;5.00;;;;;21.15;42.04;100121.49;110373;1250;18601;-38
2023/08/08 07:26:39;;;;;;;;;4.00;4.00;;;;;21.05;42.32;100125.67;110324;1265;19978;-38
2023/08/08 07:29:05;;;;;;;;;4.00;4.00;;;;;21.01;42.08;100122.45;110274;1265;20894;-39
2023/08/08 07:31:31;;;;;;;;;6.00;5.00;;;;;21.04;41.89;100119.86;109990;1265;250265;-38
2023/08/08 07:33:57;;;;;;;;;7.00;5.00;;;;;21.07;42.22;100118.91;110287;1250;19976;-39
2023/08/08 07:36:23;;;;;;;;;4.00;4.00;;;;;21.07;42.23;100118.54;110231;1251;20395;-39
2023/08/08 07:38:49;;;;;;;;;5.00;4.00;;;;;21.07;42.23;100114.92;110256;1265;19824;-38
2023/08/08 07:41:16;;;;;;;;;5.00;5.00;;;;;21.18;41.81;100115.30;110262;1257;18860;-39
2023/08/08 07:43:42;;;;;;;;;6.33;6.33;;;;;21.21;42.07;100113.33;110234;1265;20921;-39
2023/08/08 07:46:08;;;;;;;;;4.00;4.00;;;;;21.15;42.33;100116.38;110240;1257;22289;-39
2023/08/08 07:48:34;;;;;;;;;4.00;4.00;;;;;21.19;41.72;100126.05;110270;1265;19904;-39
2023/08/08 07:51:00;;;;;;;;;5.00;5.00;;;;;21.20;41.89;100125.55;110176;1265;19247;-39
2023/08/08 07:53:26;;;;;;;;;5.00;4.00;;;;;21.24;41.80;100122.15;110171;1265;19649;-39
2023/08/08 07:55:52;;;;;;;;;4.50;4.50;;;;;21.20;41.54;100108.33;110172;1265;21396;-39
2023/08/08 07:58:18;;;;;;;;;4.00;4.00;;;;;21.26;41.18;100115.74;110192;1265;19510;-39
2023/08/08 08:00:44;;;;;;;;;4.00;4.00;;;;;21.30;41.40;100117.17;110213;1265;19878;-39
2023/08/08 08:03:10;;;;;;;;;4.00;4.00;;;;;21.31;41.30;100121.36;110205;1250;21257;-38
2023/08/08 08:05:37;;;;;;;;;5.00;5.00;;;;;21.35;41.37;100117.08;110217;1265;19353;-38
2023/08/08 08:08:03;;;;;;;;;5.00;4.33;;;;;21.39;41.19;100116.31;110176;1265;18590;-39
2023/08/08 08:10:29;;;;;;;;;4.00;4.00;;;;;21.47;40.99;100115.69;110255;1265;20114;-39
2023/08/08 08:12:57;;;;;;;;;4.00;4.00;;;;;21.49;40.77;100121.48;110283;1251;22145;-39
2023/08/08 08:15:24;;;;;;;;;4.00;4.00;;;;;21.56;40.80;100122.39;110297;1257;18500;-39
2023/08/08 08:17:49;;;;;;;;;5.00;5.00;;;;;21.55;41.12;100124.14;110339;1251;19828;-39
2023/08/08 08:20:15;;;;;;;;;7.00;7.00;;;;;21.58;41.01;100122.69;110332;1266;20674;-39
2023/08/08 08:22:41;;;;;;;;;2.00;2.00;;;;;21.64;40.27;100122.79;110343;1265;18998;-39
2023/08/08 08:25:09;;;;;;;;;4.00;4.00;;;;;21.67;40.50;100124.80;110221;1265;18864;-40
2023/08/08 08:27:35;;;;;;;;;3.00;3.00;;;;;21.69;40.36;100132.70;110335;1265;20694;-39
2023/08/08 08:30:01;;;;;;;;;4.00;4.00;;;;;21.70;40.22;100137.65;110277;1265;18714;-39
2023/08/08 08:32:27;;;;;;;;;2.00;2.00;;;;;21.70;40.75;100143.48;110261;1251;23038;-39
2023/08/08 08:34:53;;;;;;;;;4.00;4.00;;;;;21.66;40.56;100146.86;110263;1250;19606;-39
2023/08/08 08:37:18;;;;;;;;;4.50;4.50;;;;;21.59;40.27;100151.14;110300;1249;19414;-39
2023/08/08 08:39:44;;;;;;;;;4.00;4.00;;;;;21.53;40.24;100149.84;110350;1265;18398;-39
2023/08/08 08:42:11;;;;;;;;;4.00;4.00;;;;;21.56;39.98;100146.65;110165;1251;20663;-38
2023/08/08 08:44:37;;;;;;;;;4.00;4.00;;;;;21.59;40.08;100153.53;110204;1251;22979;-38
2023/08/08 08:47:03;;;;;;;;;7.00;5.00;;;;;21.58;40.25;100153.17;110277;1250;20117;-38
2023/08/08 08:49:29;;;;;;;;;4.00;4.00;;;;;21.59;40.14;100160.50;110301;1251;22035;-38
2023/08/08 08:51:56;;;;;;;;;4.00;4.00;;;;;21.57;39.88;100166.14;110270;1265;19914;-39
2023/08/08 08:54:22;;;;;;;;;5.00;5.00;;;;;21.59;40.07;100166.98;110263;1250;22728;-39
2023/08/08 08:56:48;;;;;;;;;6.00;5.00;;;;;21.57;39.97;100172.08;110274;1249;20674;-40
2023/08/08 08:59:14;;;;;;;;;4.50;4.00;;;;;21.60;39.85;100173.30;110246;1265;22639;-39
2023/08/08 09:01:42;;;;;;;;;5.00;5.00;;;;;21.58;40.02;100178.67;110278;1265;18612;-40
2023/08/08 09:04:08;;;;;;;;;6.00;4.00;;;;;21.57;39.90;100177.20;110292;1265;20767;-39
2023/08/08 09:06:34;;;;;;;;;4.00;4.00;;;;;21.56;39.86;100179.67;110263;1265;18431;-39
2023/08/08 09:09:00;;;;;;;;;2.00;2.00;;;;;21.52;40.07;100185.27;110272;1265;18672;-40
2023/08/08 09:11:26;;;;;;;;;4.00;4.00;;;;;21.52;40.03;100188.00;110286;1250;22944;-39
2023/08/08 09:13:52;;;;;;;;;7.00;5.00;;;;;21.53;40.23;100190.11;110307;1249;18436;-39
2023/08/08 09:16:18;;;;;;;;;6.00;5.00;;;;;21.55;39.95;100190.36;110283;1265;22280;-39
2023/08/08 09:18:44;;;;;;;;;6.00;5.00;;;;;21.56;40.18;100193.35;110288;1257;19335;-40
2023/08/08 09:21:11;;;;;;;;;5.00;5.00;;;;;21.58;40.44;100190.34;110265;1265;19610;-40
2023/08/08 09:23:37;;;;;;;;;4.00;4.00;;;;;21.63;40.28;100193.23;110234;1265;21382;-40
2023/08/08 09:26:03;;;;;;;;;5.00;5.00;;;;;21.64;40.58;100198.45;110338;1260;19956;-39
2023/08/08 09:28:29;;;;;;;;;7.00;5.00;;;;;21.66;40.67;100198.37;110306;1265;22171;-38
2023/08/08 09:30:55;;;;;;;;;7.00;7.00;;;;;21.65;40.53;100199.08;110335;1249;20148;-39
2023/08/08 09:33:21;;;;;;;;;5.00;4.00;;;;;21.65;40.38;100203.02;110308;1265;19159;-39
2023/08/08 09:35:47;;;;;;;;;5.00;5.00;;;;;21.64;40.04;100206.94;110290;1265;22686;-39
2023/08/08 09:38:13;;;;;;;;;4.00;4.00;;;;;21.60;40.10;100201.76;110330;1265;18623;-39
2023/08/08 09:40:40;;;;;;;;;7.00;5.00;;;;;21.58;40.24;100205.00;110275;1265;19960;-40
2023/08/08 09:43:06;;;;;;;;;6.00;5.00;;;;;21.56;40.54;100206.11;110318;1265;18236;-39
2023/08/08 09:45:32;;;;;;;;;6.00;6.00;;;;;21.58;40.52;100202.71;110313;1265;18673;-39
2023/08/08 09:47:58;;;;;;;;;5.00;5.00;;;;;21.59;40.45;100203.89;110208;1249;19557;-40
2023/08/08 09:50:25;;;;;;;;;5.00;5.00;;;;;21.60;40.50;100209.61;110359;1265;19530;-40
2023/08/08 09:52:53;;;;;;;;;8.00;7.00;;;;;21.59;40.63;100210.87;110312;1265;19136;-40
2023/08/08 09:55:19;;;;;;;;;6.00;5.00;;;;;21.64;40.62;100211.30;110317;1265;20212;-40
2023/08/08 09:57:45;;;;;;;;;5.00;5.00;;;;;21.59;41.01;100211.80;110267;1265;19547;-39
2023/08/08 10:00:15;;;;;;;;;5.00;5.00;;;;;21.62;40.69;100212.86;110257;1250;22008;-39
2023/08/08 10:02:41;;;;;;;;;5.00;5.00;;;;;21.61;40.89;100210.70;110282;1265;20667;-40
2023/08/08 10:05:07;;;;;;;;;6.50;5.00;;;;;21.63;40.83;100210.77;110267;1265;19544;-40
2023/08/08 10:07:33;;;;;;;;;5.00;5.00;;;;;21.63;40.70;100210.93;110283;1250;18626;-40
2023/08/08 10:09:59;;;;;;;;;7.00;5.00;;;;;21.62;40.86;100214.92;110257;1250;21009;-40
2023/08/08 10:12:25;;;;;;;;;6.00;6.00;;;;;21.63;40.66;100214.86;110268;1265;18562;-39
2023/08/08 10:14:51;;;;;;;;;5.00;5.00;;;;;21.62;40.98;100218.75;110246;1265;18856;-39
2023/08/08 10:17:18;;;;;;;;;5.00;5.00;;;;;21.57;40.84;100218.58;110306;1250;20081;-39
2023/08/08 10:19:44;;;;;;;;;7.00;5.00;;;;;21.59;41.20;100213.70;110269;1265;22239;-39
2023/08/08 10:22:10;;;;;;;;;5.00;5.00;;;;;21.59;40.89;100217.48;110330;1265;22286;-39
2023/08/08 10:24:36;;;;;;;;;7.00;7.00;;;;;21.61;40.93;100219.84;110358;1257;19119;-39
2023/08/08 10:27:02;;;;;;;;;7.00;5.00;;;;;21.55;41.14;100216.53;110320;1250;19735;-39
2023/08/08 10:29:30;;;;;;;;;4.00;4.00;;;;;21.56;40.86;100219.89;110314;1251;20265;-39
2023/08/08 10:31:55;;;;;;;;;5.00;5.00;;;;;21.57;40.97;100216.95;110296;1251;20513;-39
2023/08/08 10:34:22;;;;;;;;;5.00;5.00;;;;;21.57;40.90;100218.30;110274;1251;19414;-39
2023/08/08 10:36:47;;;;;;;;;4.00;4.00;;;;;21.59;40.71;100217.42;110197;1265;22184;-39
2023/08/08 10:39:14;;;;;;;;;5.00;5.00;;;;;21.59;40.93;100220.68;110333;1251;23112;-39
2023/08/08 10:41:39;;;;;;;;;5.00;5.00;;;;;21.58;40.94;100223.74;110302;1265;19680;-39
2023/08/08 10:44:06;;;;;;;;;4.00;4.00;;;;;21.61;40.87;100221.92;110231;1249;20046;-39
2023/08/08 10:46:32;;;;;;;;;7.00;6.00;;;;;21.63;41.16;100214.81;110324;1251;20555;-39
2023/08/08 10:48:59;;;;;;;;;6.00;5.00;;;;;21.64;41.16;100215.50;110315;1257;19717;-39
2023/08/08 10:51:25;;;;;;;;;5.00;5.00;;;;;21.63;41.51;100208.33;110362;1265;22069;-39
2023/08/08 10:53:51;;;;;;;;;4.00;4.00;;;;;21.68;41.49;100197.91;110337;1251;20550;-39
2023/08/08 10:56:17;;;;;;;;;6.00;5.00;;;;;21.72;41.58;100201.25;110343;1251;19303;-40
2023/08/08 10:58:43;;;;;;;;;5.00;5.00;;;;;21.73;41.23;100205.70;110352;1260;20046;-39
2023/08/08 11:01:09;;;;;;;;;8.00;8.00;;;;;21.75;41.30;100208.48;110316;1251;20516;-39
2023/08/08 11:03:35;;;;;;;;;5.00;5.00;;;;;21.77;41.15;100207.35;110396;1265;19569;-39
2023/08/08 11:06:01;;;;;;;;;4.00;4.00;;;;;21.77;40.92;100210.03;110343;1249;19835;-38
2023/08/08 11:08:27;;;;;;;;;5.00;5.00;;;;;21.71;40.70;100206.00;110317;1250;21949;-39
2023/08/08 11:10:53;;;;;;;;;5.00;4.00;;;;;21.73;40.63;100211.77;110390;1251;19477;-39
2023/08/08 11:13:19;;;;;;;;;4.00;4.00;;;;;21.74;40.67;100213.33;110312;1265;18408;-39